createdAt,value
2023-04-23T00:01:41.495Z,8.60
2023-04-23T00:04:10.541Z,8.30
2023-04-23T00:06:39.498Z,9.03
2023-04-23T00:09:08.666Z,8.87
2023-04-23T00:11:37.342Z,7.97
2023-04-23T00:14:07.385Z,8.50
2023-04-23T00:16:36.132Z,8.20
2023-04-23T00:19:04.423Z,8.33
2023-04-23T00:21:32.473Z,8.77
2023-04-23T00:24:00.557Z,7.40
2023-04-23T00:26:28.619Z,7.80
2023-04-23T00:28:56.666Z,7.90
2023-04-23T00:31:27.303Z,8.00
2023-04-23T00:33:55.997Z,7.87
2023-04-23T00:36:24.213Z,8.13
2023-04-23T00:38:52.334Z,8.00
2023-04-23T00:41:21.098Z,7.40
2023-04-23T00:43:52.775Z,8.60
2023-04-23T00:46:21.169Z,8.20
2023-04-23T00:48:51.903Z,8.23
2023-04-23T00:51:19.970Z,8.27
2023-04-23T00:53:48.015Z,7.50
2023-04-23T00:56:16.550Z,7.70
2023-04-23T00:58:45.435Z,8.20
2023-04-23T01:01:14.134Z,8.70
2023-04-23T01:03:44.190Z,7.33
2023-04-23T01:06:13.764Z,8.23
2023-04-23T01:08:44.143Z,6.97
2023-04-23T01:11:14.556Z,7.60
2023-04-23T01:13:43.338Z,7.83
2023-04-23T01:16:11.883Z,7.53
2023-04-23T01:18:41.065Z,8.20
2023-04-23T01:21:11.035Z,7.00
2023-04-23T01:23:40.976Z,7.77
2023-04-23T01:26:10.754Z,8.10
2023-04-23T01:28:39.199Z,7.43
2023-04-23T01:31:07.954Z,7.70
2023-04-23T01:33:36.621Z,7.67
2023-04-23T01:36:05.641Z,8.00
2023-04-23T01:38:35.298Z,7.47
2023-04-23T01:41:05.319Z,6.70
2023-04-23T01:43:33.705Z,7.77
2023-04-23T01:46:01.985Z,8.00
2023-04-23T01:48:30.237Z,7.63
2023-04-23T01:50:58.638Z,7.67
2023-04-23T01:53:26.682Z,8.10
2023-04-23T01:55:56.580Z,8.33
2023-04-23T01:58:26.148Z,7.20
2023-04-23T02:00:54.207Z,7.80
2023-04-23T02:03:22.726Z,7.37
2023-04-23T02:05:53.058Z,6.50
2023-04-23T02:08:21.156Z,6.53
2023-04-23T02:10:49.206Z,7.47
2023-04-23T02:13:17.241Z,7.33
2023-04-23T02:15:46.815Z,6.90
2023-04-23T02:18:14.887Z,7.67
2023-04-23T02:20:42.972Z,7.50
2023-04-23T02:23:12.115Z,6.93
2023-04-23T02:25:40.203Z,7.20
2023-04-23T02:28:08.580Z,6.70
2023-04-23T02:30:37.136Z,6.50
2023-04-23T02:33:06.727Z,7.80
2023-04-23T02:35:34.803Z,7.80
2023-04-23T02:38:02.829Z,7.13
2023-04-23T02:40:31.406Z,7.47
2023-04-23T02:42:59.482Z,7.10
2023-04-23T02:45:27.711Z,7.10
2023-04-23T02:47:55.871Z,6.00
2023-04-23T02:50:25.480Z,7.30
2023-04-23T02:52:53.548Z,6.80
2023-04-23T02:55:21.591Z,7.20
2023-04-23T02:57:49.667Z,7.73
2023-04-23T03:00:18.198Z,7.00
2023-04-23T03:02:46.641Z,7.87
2023-04-23T03:05:14.904Z,8.57
2023-04-23T03:07:44.351Z,7.57
2023-04-23T03:10:12.568Z,8.10
2023-04-23T03:12:40.663Z,7.60
2023-04-23T03:15:09.172Z,8.07
2023-04-23T03:17:38.428Z,8.20
2023-04-23T03:20:08.773Z,8.77
2023-04-23T03:22:37.158Z,9.50
2023-04-23T03:25:08.688Z,9.20
2023-04-23T03:27:39.043Z,10.07
2023-04-23T03:30:09.954Z,9.13
2023-04-23T03:32:38.348Z,9.20
2023-04-23T03:35:07.214Z,10.00
2023-04-23T03:37:35.249Z,9.87
2023-04-23T03:40:07.778Z,10.77
2023-04-23T03:42:37.354Z,10.30
2023-04-23T03:45:06.213Z,10.60
2023-04-23T03:47:34.343Z,10.40
2023-04-23T03:50:02.450Z,10.40
2023-04-23T03:52:30.607Z,10.53
2023-04-23T03:54:58.714Z,9.43
2023-04-23T03:57:26.836Z,9.00
2023-04-23T03:59:56.554Z,8.00
2023-04-23T04:02:24.725Z,8.03
2023-04-23T04:04:55.042Z,8.10
2023-04-23T04:07:23.356Z,7.47
2023-04-23T04:09:51.406Z,7.67
2023-04-23T04:12:19.491Z,8.33
2023-04-23T04:14:47.520Z,6.77
2023-04-23T04:17:16.963Z,6.60
2023-04-23T04:19:45.038Z,6.63
2023-04-23T04:22:13.345Z,7.37
2023-04-23T04:24:42.428Z,6.87
2023-04-23T04:27:11.699Z,6.80
2023-04-23T04:29:40.848Z,7.23
2023-04-23T04:32:09.652Z,5.93
2023-04-23T04:34:40.010Z,7.00
2023-04-23T04:37:10.147Z,7.10
2023-04-23T04:39:38.232Z,5.63
2023-04-23T04:42:07.332Z,6.60
2023-04-23T04:44:37.665Z,6.83
2023-04-23T04:47:07.111Z,7.37
2023-04-23T04:49:36.024Z,7.20
2023-04-23T04:52:05.514Z,7.30
2023-04-23T04:54:33.561Z,7.83
2023-04-23T04:57:02.409Z,8.60
2023-04-23T04:59:30.487Z,7.73
2023-04-23T05:01:59.670Z,8.10
2023-04-23T05:04:27.998Z,6.90
2023-04-23T05:06:56.453Z,7.13
2023-04-23T05:09:26.713Z,7.53
2023-04-23T05:11:54.835Z,7.50
2023-04-23T05:14:22.871Z,7.70
2023-04-23T05:16:51.203Z,8.20
2023-04-23T05:19:19.410Z,7.70
2023-04-23T05:21:47.534Z,7.20
2023-04-23T05:24:15.588Z,7.50
2023-04-23T05:26:45.003Z,7.03
2023-04-23T05:29:17.832Z,6.30
2023-04-23T05:31:46.399Z,6.43
2023-04-23T05:34:14.472Z,6.80
2023-04-23T05:36:42.551Z,6.60
2023-04-23T05:39:10.757Z,7.67
2023-04-23T05:41:38.822Z,6.73
2023-04-23T05:44:08.257Z,6.27
2023-04-23T05:46:36.654Z,6.80
2023-04-23T05:49:04.850Z,7.63
2023-04-23T05:51:32.894Z,6.47
2023-04-23T05:54:00.946Z,6.90
2023-04-23T05:56:29.075Z,7.00
2023-04-23T05:58:57.107Z,5.77
2023-04-23T06:01:26.558Z,7.10
2023-04-23T06:03:54.761Z,5.80
2023-04-23T06:06:23.141Z,6.50
2023-04-23T06:08:51.920Z,6.63
2023-04-23T06:11:20.034Z,7.50
2023-04-23T06:13:48.192Z,6.80
2023-04-23T06:16:16.376Z,6.50
2023-04-23T06:18:45.940Z,6.17
2023-04-23T06:21:14.552Z,7.07
2023-04-23T06:23:42.615Z,6.77
2023-04-23T06:26:10.721Z,6.87
2023-04-23T06:28:39.520Z,7.10
2023-04-23T06:31:08.740Z,6.40
2023-04-23T06:33:37.538Z,5.80
2023-04-23T06:36:09.505Z,7.10
2023-04-23T06:38:37.579Z,6.33
2023-04-23T06:41:06.097Z,7.00
2023-04-23T06:43:34.769Z,5.97
2023-04-23T06:46:02.825Z,6.27
2023-04-23T06:48:32.317Z,6.67
2023-04-23T06:51:00.435Z,6.67
2023-04-23T06:53:30.131Z,6.70
2023-04-23T06:55:58.175Z,6.07
2023-04-23T06:58:31.208Z,7.10
2023-04-23T07:01:00.995Z,6.10
2023-04-23T07:03:29.315Z,8.50
2023-04-23T07:05:57.400Z,7.70
2023-04-23T07:08:25.482Z,7.37
2023-04-23T07:10:54.899Z,9.20
2023-04-23T07:13:24.055Z,6.67
2023-04-23T07:15:52.124Z,7.27
2023-04-23T07:18:20.186Z,5.63
2023-04-23T07:20:48.258Z,5.80
2023-04-23T07:23:16.293Z,4.37
2023-04-23T07:25:44.389Z,4.13
2023-04-23T07:28:13.801Z,4.93
2023-04-23T07:30:41.912Z,4.53
2023-04-23T07:33:10.043Z,4.17
2023-04-23T07:35:38.114Z,4.70
2023-04-23T07:38:06.198Z,4.97
2023-04-23T07:40:34.330Z,4.90
2023-04-23T07:43:02.513Z,4.70
2023-04-23T07:45:32.053Z,4.60
2023-04-23T07:48:01.713Z,4.50
2023-04-23T07:50:31.086Z,5.60
2023-04-23T07:52:59.245Z,5.47
2023-04-23T07:55:27.270Z,6.10
2023-04-23T07:57:55.332Z,5.40
2023-04-23T08:00:23.537Z,6.10
2023-04-23T08:02:54.937Z,6.50
2023-04-23T08:05:23.367Z,5.37
2023-04-23T08:07:51.497Z,5.90
2023-04-23T08:10:19.557Z,5.40
2023-04-23T08:12:47.841Z,5.13
2023-04-23T08:15:16.199Z,6.70
2023-04-23T08:17:44.315Z,5.10
2023-04-23T08:20:13.978Z,5.70
2023-04-23T08:22:42.163Z,8.20
2023-04-23T08:25:11.150Z,9.10
2023-04-23T08:27:39.306Z,9.53
2023-04-23T08:30:08.681Z,7.90
2023-04-23T08:32:36.806Z,8.50
2023-04-23T08:35:05.538Z,8.80
2023-04-23T08:37:35.151Z,11.00
2023-04-23T08:40:03.287Z,9.67
2023-04-23T08:42:39.037Z,9.70
2023-04-23T08:45:08.275Z,9.73
2023-04-23T08:47:37.150Z,10.10
2023-04-23T08:50:06.694Z,10.20
2023-04-23T08:52:39.934Z,9.43
2023-04-23T08:55:11.188Z,9.10
2023-04-23T08:57:41.342Z,10.47
2023-04-23T09:00:11.722Z,7.37
2023-04-23T09:02:42.219Z,11.03
2023-04-23T09:05:11.343Z,9.17
2023-04-23T09:07:41.636Z,11.17
2023-04-23T09:10:12.882Z,11.50
2023-04-23T09:12:45.030Z,11.80
2023-04-23T09:15:14.460Z,11.40
2023-04-23T09:17:45.153Z,10.67
2023-04-23T09:20:14.424Z,9.40
2023-04-23T09:22:47.431Z,8.80
2023-04-23T09:25:17.725Z,8.50
2023-04-23T09:27:46.875Z,8.80
2023-04-23T09:30:15.777Z,8.70
2023-04-23T09:32:46.082Z,9.53
2023-04-23T09:35:15.910Z,8.03
2023-04-23T09:37:48.651Z,8.20
2023-04-23T09:40:18.403Z,8.10
2023-04-23T09:42:50.907Z,8.67
2023-04-23T09:45:19.358Z,10.20
2023-04-23T09:47:52.448Z,8.43
2023-04-23T09:50:21.180Z,7.80
2023-04-23T09:52:57.129Z,7.87
2023-04-23T09:55:35.543Z,7.10
2023-04-23T09:58:05.437Z,7.13
2023-04-23T10:00:38.162Z,7.90
2023-04-23T10:03:08.866Z,6.73
2023-04-23T10:05:59.834Z,6.33
2023-04-23T10:08:31.918Z,6.27
2023-04-23T10:11:06.617Z,7.00
2023-04-23T10:13:43.318Z,6.33
2023-04-23T10:16:22.399Z,6.60
2023-04-23T10:18:55.210Z,5.93
2023-04-23T10:21:33.936Z,5.43
2023-04-23T10:24:07.304Z,6.00
2023-04-23T10:26:39.217Z,5.93
2023-04-23T10:29:10.192Z,6.60
2023-04-23T10:31:38.643Z,6.70
2023-04-23T10:34:08.110Z,5.97
2023-04-23T10:36:36.225Z,5.80
2023-04-23T10:39:09.342Z,5.97
2023-04-23T10:41:39.623Z,5.77
2023-04-23T10:44:12.227Z,5.43
2023-04-23T10:46:40.436Z,5.67
2023-04-23T10:49:14.272Z,5.37
2023-04-23T10:54:17.800Z,5.77
2023-04-23T10:56:46.065Z,6.53
2023-04-23T10:59:21.153Z,6.20
2023-04-23T11:01:50.858Z,5.80
2023-04-23T11:04:23.565Z,5.70
2023-04-23T11:06:54.878Z,6.07
2023-04-23T11:09:39.193Z,5.70
2023-04-23T11:12:09.214Z,5.77
2023-04-23T11:14:39.177Z,5.97
2023-04-23T11:17:07.439Z,5.60
2023-04-23T11:19:39.548Z,5.57
2023-04-23T11:22:09.032Z,5.57
2023-04-23T11:24:42.427Z,6.20
2023-04-23T11:27:12.048Z,5.60
2023-04-23T11:29:42.005Z,5.60
2023-04-23T11:32:12.946Z,4.57
2023-04-23T11:34:41.871Z,4.20
2023-04-23T11:37:12.207Z,5.20
2023-04-23T11:39:42.916Z,4.43
2023-04-23T11:42:11.710Z,4.93
2023-04-23T11:44:41.136Z,4.07
2023-04-23T11:47:11.154Z,4.47
2023-04-23T11:49:40.070Z,4.93
2023-04-23T11:52:08.415Z,5.00
2023-04-23T11:54:36.616Z,4.53
2023-04-23T11:57:06.747Z,5.80
2023-04-23T11:59:34.829Z,5.17
2023-04-23T12:02:02.933Z,6.40
2023-04-23T12:04:32.859Z,6.20
2023-04-23T12:07:04.314Z,6.00
2023-04-23T12:09:38.300Z,5.80
2023-04-23T12:12:07.866Z,5.50
2023-04-23T12:14:35.912Z,5.90
2023-04-23T12:17:11.646Z,5.90
2023-04-23T12:19:40.696Z,6.50
2023-04-23T12:22:08.988Z,7.17
2023-04-23T12:24:48.567Z,6.67
2023-04-23T12:27:21.976Z,4.47
2023-04-23T12:29:50.899Z,5.30
2023-04-23T12:32:22.881Z,5.97
2023-04-23T12:34:54.983Z,6.17
2023-04-23T12:37:26.780Z,7.13
2023-04-23T12:39:56.667Z,6.67
2023-04-23T12:42:26.765Z,6.30
2023-04-23T12:44:55.832Z,6.20
2023-04-23T12:47:24.210Z,6.33
2023-04-23T12:49:53.500Z,5.27
2023-04-23T12:52:22.349Z,6.20
2023-04-23T12:54:52.300Z,5.40
2023-04-23T12:57:23.298Z,5.23
2023-04-23T12:59:54.799Z,5.07
2023-04-23T13:02:23.805Z,6.17
2023-04-23T13:04:52.012Z,4.73
2023-04-23T13:07:20.056Z,4.80
2023-04-23T13:09:48.153Z,5.30
2023-04-23T13:12:16.315Z,4.93
2023-04-23T13:14:44.368Z,4.90
2023-04-23T13:17:14.181Z,5.57
2023-04-23T13:19:42.369Z,4.83
2023-04-23T13:22:10.856Z,4.30
2023-04-23T13:24:38.920Z,4.30
2023-04-23T13:27:07.035Z,5.03
2023-04-23T13:29:35.291Z,3.87
2023-04-23T13:32:03.507Z,4.90
2023-04-23T13:34:34.060Z,4.50
2023-04-23T13:37:05.551Z,4.30
2023-04-23T13:39:33.737Z,4.77
2023-04-23T13:42:09.072Z,4.10
2023-04-23T13:44:37.841Z,5.00
2023-04-23T13:47:06.075Z,3.67
2023-04-23T13:49:35.988Z,4.37
2023-04-23T13:52:07.147Z,4.17
2023-04-23T13:54:36.113Z,4.60
2023-04-23T13:57:04.390Z,3.10
2023-04-23T13:59:32.508Z,3.37
2023-04-23T14:02:00.930Z,2.60
2023-04-23T14:04:29.017Z,3.40
2023-04-23T14:06:58.470Z,2.83
2023-04-23T14:09:26.539Z,3.17
2023-04-23T14:11:54.658Z,3.30
2023-04-23T14:14:22.749Z,3.07
2023-04-23T14:16:51.054Z,2.67
2023-04-23T14:19:19.253Z,2.57
2023-04-23T14:21:47.345Z,2.30
2023-04-23T14:24:24.652Z,2.33
2023-04-23T14:26:52.704Z,2.97
2023-04-23T14:29:25.900Z,2.77
2023-04-23T14:31:54.132Z,2.30
2023-04-23T14:34:22.383Z,4.83
2023-04-23T14:36:52.745Z,3.13
2023-04-23T14:39:23.729Z,2.63
2023-04-23T14:41:51.828Z,3.50
2023-04-23T14:44:20.198Z,3.23
2023-04-23T14:46:49.959Z,2.67
2023-04-23T14:49:18.061Z,2.67
2023-04-23T14:51:46.165Z,3.43
2023-04-23T14:54:14.620Z,2.83
2023-04-23T14:56:44.133Z,3.07
2023-04-23T14:59:12.190Z,3.43
2023-04-23T15:01:40.467Z,2.97
2023-04-23T15:04:08.655Z,3.07
2023-04-23T15:06:36.816Z,2.67
2023-04-23T15:09:05.148Z,3.07
2023-04-23T15:11:33.562Z,2.47
2023-04-23T15:14:08.947Z,2.53
2023-04-23T15:16:48.673Z,2.47
2023-04-23T15:19:57.807Z,2.57
2023-04-23T15:22:26.211Z,2.80
2023-04-23T15:24:54.258Z,2.57
2023-04-23T15:27:25.017Z,2.40
2023-04-23T15:29:54.443Z,2.87
2023-04-23T15:32:22.551Z,2.97
2023-04-23T15:34:50.672Z,2.67
2023-04-23T15:37:20.996Z,3.03
2023-04-23T15:39:49.029Z,2.80
2023-04-23T15:42:18.251Z,2.20
2023-04-23T15:44:50.472Z,2.93
2023-04-23T15:47:22.052Z,3.67
2023-04-23T15:49:50.489Z,3.40
2023-04-23T15:52:19.053Z,2.80
2023-04-23T15:54:47.172Z,3.00
2023-04-23T15:57:15.219Z,3.10
2023-04-23T15:59:43.755Z,3.67
2023-04-23T16:02:12.119Z,2.17
2023-04-23T16:04:42.313Z,2.60
2023-04-23T16:07:10.769Z,2.97
2023-04-23T16:09:38.911Z,2.90
2023-04-23T16:12:08.902Z,3.03
2023-04-23T16:14:38.300Z,2.90
2023-04-23T16:17:06.480Z,2.90
2023-04-23T16:19:34.760Z,4.90
2023-04-23T16:22:04.217Z,3.57
2023-04-23T16:24:32.268Z,3.30
2023-04-23T16:27:02.354Z,3.10
2023-04-23T16:29:30.615Z,3.03
2023-04-23T16:31:58.843Z,3.47
2023-04-23T16:34:26.952Z,3.27
2023-04-23T16:36:55.252Z,2.87
2023-04-23T16:39:24.926Z,3.30
2023-04-23T16:41:52.964Z,4.50
2023-04-23T16:44:21.006Z,2.77
2023-04-23T16:46:49.137Z,3.20
2023-04-23T16:49:17.262Z,3.53
2023-04-23T16:51:45.335Z,2.90
2023-04-23T16:54:13.543Z,2.57
2023-04-23T16:56:45.303Z,2.90
2023-04-23T16:59:15.271Z,3.10
2023-04-23T17:01:43.327Z,3.10
2023-04-23T17:04:11.556Z,3.27
2023-04-23T17:06:39.771Z,3.37
2023-04-23T17:09:08.779Z,3.50
2023-04-23T17:11:36.916Z,2.73
2023-04-23T17:14:06.393Z,2.60
2023-04-23T17:16:34.528Z,2.43
2023-04-23T17:19:03.065Z,2.87
2023-04-23T17:21:32.371Z,3.13
2023-04-23T17:24:00.489Z,2.90
2023-04-23T17:26:28.574Z,4.10
2023-04-23T17:28:56.680Z,2.63
2023-04-23T17:31:26.133Z,2.30
2023-04-23T17:33:55.442Z,2.23
2023-04-23T17:36:23.494Z,2.53
2023-04-23T17:38:51.601Z,2.60
2023-04-23T17:41:19.691Z,2.30
2023-04-23T17:43:49.246Z,2.30
2023-04-23T17:46:17.479Z,2.40
2023-04-23T17:48:53.181Z,2.30
2023-04-23T17:51:23.132Z,2.50
2023-04-23T17:53:51.975Z,2.57
2023-04-23T17:56:20.169Z,2.63
2023-04-23T17:58:48.460Z,2.10
2023-04-23T18:01:17.627Z,2.40
2023-04-23T18:03:48.049Z,2.13
2023-04-23T18:06:16.323Z,2.50
2023-04-23T18:08:44.500Z,2.60
2023-04-23T18:11:12.626Z,2.63
2023-04-23T18:13:44.689Z,2.40
2023-04-23T18:16:12.867Z,2.47
2023-04-23T18:18:40.925Z,2.60
2023-04-23T18:21:10.412Z,1.90
2023-04-23T18:23:39.666Z,2.30
2023-04-23T18:26:07.756Z,2.30
2023-04-23T18:28:37.182Z,2.80
2023-04-23T18:31:05.537Z,2.10
2023-04-23T18:33:38.758Z,2.50
2023-04-23T18:36:22.214Z,2.60
2023-04-23T18:38:50.630Z,2.40
2023-04-23T18:41:18.702Z,2.20
2023-04-23T18:43:46.817Z,2.43
2023-04-23T18:46:16.188Z,2.47
2023-04-23T18:48:52.323Z,2.40
2023-04-23T18:51:27.579Z,2.67
2023-04-23T18:53:55.683Z,2.23
2023-04-23T18:56:25.086Z,2.10
2023-04-23T18:58:53.216Z,2.23
2023-04-23T19:01:21.653Z,2.50
2023-04-23T19:03:49.883Z,2.27
2023-04-23T19:06:18.047Z,2.30
2023-04-23T19:08:47.485Z,2.13
2023-04-23T19:11:15.720Z,2.00
2023-04-23T19:13:43.766Z,2.40
2023-04-23T19:16:11.979Z,2.20
2023-04-23T19:18:40.309Z,2.50
2023-04-23T19:21:08.677Z,3.37
2023-04-23T19:23:36.835Z,2.47
2023-04-23T19:26:06.340Z,2.33
2023-04-23T19:28:34.413Z,2.30
2023-04-23T19:31:04.168Z,2.17
2023-04-23T19:33:32.288Z,2.03
2023-04-23T19:36:00.393Z,2.63
2023-04-23T19:38:28.731Z,2.60
2023-04-23T19:40:56.913Z,2.50
2023-04-23T19:43:26.381Z,3.00
2023-04-23T19:45:54.759Z,2.43
2023-04-23T19:48:22.837Z,2.60
2023-04-23T19:50:51.188Z,2.47
2023-04-23T19:53:19.420Z,2.33
2023-04-23T19:55:47.463Z,2.47
2023-04-23T19:58:17.669Z,2.57
2023-04-23T20:00:47.211Z,1.83
2023-04-23T20:03:16.069Z,1.63
2023-04-23T20:05:46.093Z,2.27
2023-04-23T20:08:25.500Z,2.97
2023-04-23T20:10:54.054Z,2.40
2023-04-23T20:13:23.649Z,2.43
2023-04-23T20:15:55.109Z,2.30
2023-04-23T20:18:25.519Z,2.33
2023-04-23T20:20:53.929Z,2.73
2023-04-23T20:23:22.034Z,2.33
2023-04-23T20:25:50.108Z,2.20
2023-04-23T20:28:18.264Z,2.67
2023-04-23T20:30:46.333Z,1.93
2023-04-23T20:33:18.685Z,2.40
2023-04-23T20:35:47.719Z,2.03
2023-04-23T20:38:19.088Z,1.93
2023-04-23T20:40:47.333Z,2.47
2023-04-23T20:43:15.553Z,2.47
2023-04-23T20:45:44.054Z,2.20
2023-04-23T20:48:12.256Z,2.20
2023-04-23T20:50:41.754Z,2.20
2023-04-23T20:53:09.800Z,2.90
2023-04-23T20:55:38.006Z,2.83
2023-04-23T20:58:06.134Z,2.87
2023-04-23T21:00:34.984Z,2.97
2023-04-23T21:03:03.274Z,2.50
2023-04-23T21:05:31.500Z,1.93
2023-04-23T21:08:00.969Z,2.67
2023-04-23T21:10:29.057Z,2.40
2023-04-23T21:12:57.185Z,2.87
2023-04-23T21:15:25.387Z,2.20
2023-04-23T21:17:53.546Z,2.83
2023-04-23T21:20:21.936Z,2.47
2023-04-23T21:22:50.076Z,2.20
2023-04-23T21:25:19.747Z,2.03
2023-04-23T21:27:48.858Z,2.10
2023-04-23T21:30:24.883Z,2.20
2023-04-23T21:32:52.999Z,2.40
2023-04-23T21:35:21.142Z,2.63
2023-04-23T21:37:49.272Z,2.40
2023-04-23T21:40:17.511Z,2.50
2023-04-23T21:42:47.648Z,1.87
2023-04-23T21:45:16.909Z,2.70
2023-04-23T21:47:45.015Z,2.70
2023-04-23T21:50:13.432Z,2.63
2023-04-23T21:52:43.257Z,2.70
2023-04-23T21:55:12.248Z,2.67
2023-04-23T21:57:40.517Z,3.40
2023-04-23T22:00:13.934Z,3.77
2023-04-23T22:02:46.404Z,3.10
2023-04-23T22:05:16.999Z,3.10
2023-04-23T22:07:45.306Z,2.90
2023-04-23T22:10:15.948Z,4.23
2023-04-23T22:12:44.703Z,4.07
2023-04-23T22:15:15.880Z,3.07
2023-04-23T22:17:46.316Z,3.37
2023-04-23T22:20:15.935Z,3.67
2023-04-23T22:22:44.426Z,3.93
2023-04-23T22:25:13.078Z,4.07
2023-04-23T22:27:42.211Z,3.93
2023-04-23T22:30:13.097Z,5.70
2023-04-23T22:32:41.520Z,3.97
2023-04-23T22:35:10.600Z,3.77
2023-04-23T22:37:38.770Z,3.40
2023-04-23T22:40:09.489Z,3.47
2023-04-23T22:42:37.802Z,3.90
2023-04-23T22:45:07.169Z,3.20
2023-04-23T22:47:37.047Z,4.47
2023-04-23T22:50:07.744Z,4.30
2023-04-23T22:52:35.810Z,4.33
2023-04-23T22:55:03.898Z,5.00
2023-04-23T22:57:32.090Z,3.97
2023-04-23T23:00:01.089Z,4.80
2023-04-23T23:02:29.492Z,3.80
2023-04-23T23:04:59.042Z,4.67
2023-04-23T23:07:27.097Z,4.57
2023-04-23T23:09:55.177Z,4.23
2023-04-23T23:12:23.241Z,4.67
2023-04-23T23:14:51.295Z,4.10
2023-04-23T23:17:19.446Z,4.13
2023-04-23T23:19:47.763Z,4.70
2023-04-23T23:22:17.194Z,5.60
2023-04-23T23:24:45.277Z,5.03
2023-04-23T23:27:13.324Z,5.57
2023-04-23T23:29:41.762Z,5.87
2023-04-23T23:32:10.109Z,5.23
2023-04-23T23:34:38.231Z,5.17
2023-04-23T23:37:06.350Z,4.40
2023-04-23T23:39:35.829Z,5.43
2023-04-23T23:42:03.910Z,5.57
2023-04-23T23:44:31.958Z,6.03
2023-04-23T23:47:00.351Z,6.50
2023-04-23T23:49:28.572Z,5.50
2023-04-23T23:51:56.650Z,6.03
2023-04-23T23:54:24.790Z,5.57
2023-04-23T23:56:55.630Z,5.73
2023-04-23T23:59:23.685Z,5.80
